createdAt,value
2019-02-06T00:00:48.640Z,0.00
2019-02-06T00:01:48.657Z,0.00
2019-02-06T00:02:48.667Z,0.00
2019-02-06T00:03:48.678Z,0.00
2019-02-06T00:04:48.692Z,0.00
2019-02-06T00:05:48.704Z,0.00
2019-02-06T00:06:48.716Z,0.00
2019-02-06T00:07:48.728Z,0.00
2019-02-06T00:08:48.740Z,0.00
2019-02-06T00:09:48.754Z,0.00
2019-02-06T00:10:48.766Z,0.00
2019-02-06T00:11:48.778Z,0.00
2019-02-06T00:12:48.791Z,0.00
2019-02-06T00:13:48.804Z,0.00
2019-02-06T00:14:48.827Z,0.00
2019-02-06T00:15:48.865Z,0.00
2019-02-06T00:16:48.870Z,0.00
2019-02-06T00:17:48.858Z,0.00
2019-02-06T00:18:48.875Z,0.00
2019-02-06T00:19:48.881Z,0.00
2019-02-06T00:20:48.891Z,0.00
2019-02-06T00:21:49.014Z,0.00
2019-02-06T00:22:48.918Z,0.00
2019-02-06T00:23:48.932Z,0.00
2019-02-06T00:24:48.965Z,0.00
2019-02-06T00:25:48.957Z,0.00
2019-02-06T00:26:48.969Z,0.00
2019-02-06T00:27:48.982Z,0.00
2019-02-06T00:28:48.994Z,0.00
2019-02-06T00:29:49.007Z,0.00
2019-02-06T00:30:49.019Z,0.00
2019-02-06T00:31:49.036Z,0.00
2019-02-06T00:32:49.044Z,0.00
2019-02-06T00:33:49.061Z,0.00
2019-02-06T00:34:49.068Z,0.00
2019-02-06T00:35:49.081Z,0.00
2019-02-06T00:36:49.096Z,0.00
2019-02-06T00:37:49.106Z,0.00
2019-02-06T00:38:49.120Z,0.00
2019-02-06T00:39:49.131Z,0.00
2019-02-06T00:40:49.143Z,0.00
2019-02-06T00:41:49.157Z,0.00
2019-02-06T00:42:49.170Z,0.00
2019-02-06T00:43:49.185Z,0.00
2019-02-06T00:44:49.196Z,0.00
2019-02-06T00:45:49.207Z,0.00
2019-02-06T00:46:49.221Z,0.00
2019-02-06T00:47:49.230Z,0.00
2019-02-06T00:48:49.245Z,0.00
2019-02-06T00:49:49.335Z,0.00
2019-02-06T00:50:49.269Z,0.00
2019-02-06T00:51:49.281Z,0.00
2019-02-06T00:52:49.296Z,0.00
2019-02-06T00:53:49.307Z,0.00
2019-02-06T00:54:49.319Z,0.00
2019-02-06T00:55:49.333Z,0.00
2019-02-06T00:56:49.351Z,0.00
2019-02-06T00:57:49.357Z,0.00
2019-02-06T00:58:49.372Z,0.00
2019-02-06T00:59:49.385Z,0.00
2019-02-06T01:00:49.396Z,0.00
2019-02-06T01:01:49.409Z,0.00
2019-02-06T01:02:49.421Z,0.00
2019-02-06T01:03:49.435Z,0.00
2019-02-06T01:04:49.446Z,0.00
2019-02-06T01:05:49.459Z,0.00
2019-02-06T01:06:49.473Z,0.00
2019-02-06T01:07:49.485Z,0.00
2019-02-06T01:08:49.497Z,0.00
2019-02-06T01:09:49.509Z,0.00
2019-02-06T01:10:49.523Z,0.00
2019-02-06T01:11:49.530Z,0.00
2019-02-06T01:12:49.545Z,0.00
2019-02-06T01:13:49.562Z,0.00
2019-02-06T01:14:49.570Z,0.00
2019-02-06T01:15:49.582Z,0.00
2019-02-06T01:16:49.596Z,0.00
2019-02-06T01:17:49.613Z,0.00
2019-02-06T01:18:49.621Z,0.00
2019-02-06T01:19:49.630Z,0.00
2019-02-06T01:20:49.644Z,0.00
2019-02-06T01:21:49.656Z,0.00
2019-02-06T01:22:49.670Z,0.00
2019-02-06T01:23:49.682Z,0.00
2019-02-06T01:24:49.694Z,0.00
2019-02-06T01:25:49.708Z,0.00
2019-02-06T01:26:49.719Z,0.00
2019-02-06T01:27:49.729Z,0.00
2019-02-06T01:28:49.743Z,0.00
2019-02-06T01:29:49.757Z,0.00
2019-02-06T01:30:49.769Z,0.00
2019-02-06T01:31:49.779Z,0.00
2019-02-06T01:32:49.791Z,0.00
2019-02-06T01:33:49.808Z,0.00
2019-02-06T01:34:49.819Z,0.00
2019-02-06T01:35:50.386Z,0.00
2019-02-06T01:36:49.844Z,0.00
2019-02-06T01:37:49.856Z,0.00
2019-02-06T01:38:49.866Z,0.00
2019-02-06T01:39:49.879Z,0.00
2019-02-06T01:40:49.891Z,0.00
2019-02-06T01:41:49.904Z,0.00
2019-02-06T01:42:49.915Z,0.00
2019-02-06T01:43:49.929Z,0.00
2019-02-06T01:44:49.941Z,0.00
2019-02-06T01:45:49.953Z,0.00
2019-02-06T01:46:49.965Z,0.00
2019-02-06T01:47:49.977Z,0.00
2019-02-06T01:48:49.992Z,0.00
2019-02-06T01:49:50.005Z,0.00
2019-02-06T01:50:50.015Z,0.00
2019-02-06T01:51:50.030Z,0.00
2019-02-06T01:52:50.040Z,0.00
2019-02-06T01:53:50.051Z,0.00
2019-02-06T01:54:50.065Z,0.00
2019-02-06T01:55:50.076Z,0.00
2019-02-06T01:56:50.092Z,0.00
2019-02-06T01:57:50.141Z,0.00
2019-02-06T01:58:50.117Z,0.00
2019-02-06T01:59:50.125Z,0.00
2019-02-06T02:00:50.233Z,0.00
2019-02-06T02:01:50.226Z,0.00
2019-02-06T02:02:50.230Z,0.00
2019-02-06T02:03:50.223Z,0.00
2019-02-06T02:04:50.228Z,0.00
2019-02-06T02:06:01.349Z,0.00
2019-02-06T02:06:50.281Z,0.00
2019-02-06T02:07:50.288Z,0.00
2019-02-06T02:08:50.287Z,0.00
2019-02-06T02:09:50.287Z,0.00
2019-02-06T02:10:50.284Z,0.00
2019-02-06T02:11:50.279Z,0.00
2019-02-06T02:12:50.291Z,0.00
2019-02-06T02:13:50.299Z,0.00
2019-02-06T02:14:50.311Z,0.00
2019-02-06T02:15:50.326Z,0.00
2019-02-06T02:16:50.338Z,0.00
2019-02-06T02:17:50.352Z,0.00
2019-02-06T02:18:50.364Z,0.00
2019-02-06T02:19:50.375Z,0.00
2019-02-06T02:20:50.388Z,0.00
2019-02-06T02:21:50.399Z,0.00
2019-02-06T02:22:50.410Z,0.00
2019-02-06T02:23:50.421Z,0.00
2019-02-06T02:24:50.434Z,0.00
2019-02-06T02:25:50.447Z,0.00
2019-02-06T02:26:50.459Z,0.00
2019-02-06T02:27:50.475Z,0.00
2019-02-06T02:28:50.485Z,0.00
2019-02-06T02:29:50.497Z,0.00
2019-02-06T02:30:50.682Z,0.00
2019-02-06T02:31:50.531Z,0.00
2019-02-06T02:32:50.532Z,0.00
2019-02-06T02:33:50.545Z,0.00
2019-02-06T02:34:50.558Z,0.00
2019-02-06T02:35:50.571Z,0.00
2019-02-06T02:36:50.583Z,0.00
2019-02-06T02:37:50.594Z,0.00
2019-02-06T02:38:50.608Z,0.00
2019-02-06T02:39:50.626Z,0.00
2019-02-06T02:40:50.630Z,0.00
2019-02-06T02:41:50.645Z,0.00
2019-02-06T02:42:50.656Z,0.00
2019-02-06T02:43:50.678Z,0.00
2019-02-06T02:44:50.683Z,0.00
2019-02-06T02:45:50.692Z,0.00
2019-02-06T02:46:50.707Z,0.00
2019-02-06T02:47:50.725Z,0.00
2019-02-06T02:48:50.730Z,0.00
2019-02-06T02:49:50.743Z,0.00
2019-02-06T02:50:50.757Z,0.00
2019-02-06T02:51:50.766Z,0.00
2019-02-06T02:52:50.780Z,0.00
2019-02-06T02:53:50.791Z,0.00
2019-02-06T02:54:50.816Z,0.00
2019-02-06T02:55:50.815Z,0.00
2019-02-06T02:56:50.829Z,0.00
2019-02-06T02:57:50.842Z,0.00
2019-02-06T02:58:50.855Z,0.00
2019-02-06T02:59:50.868Z,0.00
2019-02-06T03:00:50.881Z,0.00
2019-02-06T03:01:50.900Z,0.00
2019-02-06T03:02:50.912Z,0.00
2019-02-06T03:03:50.921Z,0.00
2019-02-06T03:04:50.935Z,0.00
2019-02-06T03:05:50.944Z,0.00
2019-02-06T03:06:50.953Z,0.00
2019-02-06T03:07:50.966Z,0.00
2019-02-06T03:08:50.981Z,0.00
2019-02-06T03:09:50.997Z,0.00
2019-02-06T03:10:51.014Z,0.00
2019-02-06T03:11:51.022Z,0.00
2019-02-06T03:12:51.032Z,0.00
2019-02-06T03:13:51.042Z,0.00
2019-02-06T03:14:51.057Z,0.00
2019-02-06T03:15:51.069Z,0.00
2019-02-06T03:16:51.079Z,0.00
2019-02-06T03:17:51.097Z,0.00
2019-02-06T03:18:51.104Z,0.00
2019-02-06T03:19:51.116Z,0.00
2019-02-06T03:20:51.130Z,0.00
2019-02-06T03:21:51.142Z,0.00
2019-02-06T03:22:51.155Z,0.00
2019-02-06T03:23:51.176Z,0.00
2019-02-06T03:24:51.181Z,0.00
2019-02-06T03:25:51.194Z,0.00
2019-02-06T03:26:51.205Z,0.00
2019-02-06T03:27:51.215Z,0.00
2019-02-06T03:28:51.235Z,0.00
2019-02-06T03:29:51.243Z,0.00
2019-02-06T03:30:51.452Z,0.00
2019-02-06T03:31:51.269Z,0.00
2019-02-06T03:32:51.280Z,0.00
2019-02-06T03:33:51.293Z,0.00
2019-02-06T03:34:51.307Z,0.00
2019-02-06T03:35:51.318Z,0.00
2019-02-06T03:36:51.341Z,0.00
2019-02-06T03:37:51.346Z,0.00
2019-02-06T03:38:51.354Z,0.00
2019-02-06T03:39:51.369Z,0.00
2019-02-06T03:40:51.462Z,0.00
2019-02-06T03:41:51.394Z,0.00
2019-02-06T03:42:51.406Z,0.00
2019-02-06T03:43:51.419Z,0.00
2019-02-06T03:44:51.432Z,0.00
2019-02-06T03:45:51.442Z,0.00
2019-02-06T03:46:51.469Z,0.00
2019-02-06T03:47:51.468Z,0.00
2019-02-06T03:48:51.481Z,0.00
2019-02-06T03:49:51.497Z,0.00
2019-02-06T03:50:51.513Z,0.00
2019-02-06T03:51:51.520Z,0.00
2019-02-06T03:52:51.533Z,0.00
2019-02-06T03:53:51.547Z,0.00
2019-02-06T03:54:51.562Z,0.00
2019-02-06T03:55:51.569Z,0.00
2019-02-06T03:56:51.582Z,0.00
2019-02-06T03:57:51.595Z,0.00
2019-02-06T03:58:51.612Z,0.00
2019-02-06T03:59:51.620Z,0.00
2019-02-06T04:00:51.635Z,0.00
2019-02-06T04:01:51.646Z,0.00
2019-02-06T04:02:51.658Z,0.00
2019-02-06T04:03:51.676Z,0.00
2019-02-06T04:04:51.685Z,0.00
2019-02-06T04:05:51.696Z,0.00
2019-02-06T04:06:54.987Z,0.00
2019-02-06T04:07:51.721Z,0.00
2019-02-06T04:08:51.736Z,0.00
2019-02-06T04:09:51.747Z,0.00
2019-02-06T04:10:51.760Z,0.00
2019-02-06T04:11:51.771Z,0.00
2019-02-06T04:12:51.786Z,0.00
2019-02-06T04:13:51.796Z,0.00
2019-02-06T04:14:51.810Z,0.00
2019-02-06T04:15:51.822Z,0.00
2019-02-06T04:16:51.835Z,0.00
2019-02-06T04:17:54.382Z,0.00
2019-02-06T04:18:51.861Z,0.00
2019-02-06T04:19:51.874Z,0.00
2019-02-06T04:20:51.887Z,0.00
2019-02-06T04:21:51.901Z,0.00
2019-02-06T04:22:51.910Z,0.00
2019-02-06T04:23:51.925Z,0.00
2019-02-06T04:24:51.936Z,0.00
2019-02-06T04:25:51.964Z,0.00
2019-02-06T04:26:51.982Z,0.00
2019-02-06T04:27:52.056Z,0.00
2019-02-06T04:28:52.047Z,0.00
2019-02-06T04:29:52.038Z,0.00
2019-02-06T04:30:52.045Z,0.00
2019-02-06T04:31:52.105Z,0.00
2019-02-06T04:32:52.098Z,0.00
2019-02-06T04:33:52.088Z,0.00
2019-02-06T04:34:52.100Z,0.00
2019-02-06T04:35:52.100Z,0.00
2019-02-06T04:36:52.094Z,0.00
2019-02-06T04:37:52.093Z,0.00
2019-02-06T04:38:52.121Z,0.00
2019-02-06T04:39:52.119Z,0.00
2019-02-06T04:40:52.132Z,0.00
2019-02-06T04:41:52.143Z,0.00
2019-02-06T04:42:52.159Z,0.00
2019-02-06T04:43:52.166Z,0.00
2019-02-06T04:44:52.180Z,0.00
2019-02-06T04:45:52.190Z,0.00
2019-02-06T04:46:52.200Z,0.00
2019-02-06T04:47:52.212Z,0.00
2019-02-06T04:48:52.226Z,0.00
2019-02-06T04:49:52.238Z,0.00
2019-02-06T04:50:52.250Z,0.00
2019-02-06T04:51:52.261Z,0.00
2019-02-06T04:52:52.271Z,0.00
2019-02-06T04:53:52.282Z,0.00
2019-02-06T04:54:52.294Z,0.00
2019-02-06T04:55:52.306Z,0.00
2019-02-06T04:56:52.318Z,0.00
2019-02-06T04:57:52.337Z,0.00
2019-02-06T04:58:52.342Z,0.00
2019-02-06T04:59:52.353Z,0.00
2019-02-06T05:00:52.369Z,0.00
2019-02-06T05:01:52.383Z,0.00
2019-02-06T05:02:52.389Z,0.00
2019-02-06T05:03:52.399Z,0.00
2019-02-06T05:04:52.413Z,0.00
2019-02-06T05:05:52.423Z,0.00
2019-02-06T05:06:52.434Z,0.00
2019-02-06T05:07:52.444Z,0.00
2019-02-06T05:08:52.457Z,0.00
2019-02-06T05:09:52.469Z,0.00
2019-02-06T05:10:52.479Z,0.00
2019-02-06T05:11:52.488Z,0.00
2019-02-06T05:12:52.499Z,0.00
2019-02-06T05:13:52.512Z,0.00
2019-02-06T05:14:52.527Z,0.00
2019-02-06T05:15:52.535Z,0.00
2019-02-06T05:16:52.557Z,0.00
2019-02-06T05:17:55.697Z,0.00
2019-02-06T05:18:52.588Z,0.00
2019-02-06T05:19:52.581Z,0.00
2019-02-06T05:20:52.605Z,0.00
2019-02-06T05:21:52.601Z,0.00
2019-02-06T05:22:52.610Z,0.00
2019-02-06T05:23:52.621Z,0.00
2019-02-06T05:24:52.634Z,0.00
2019-02-06T05:25:52.650Z,0.00
2019-02-06T05:26:52.654Z,0.00
2019-02-06T05:27:52.665Z,0.00
2019-02-06T05:28:52.676Z,0.00
2019-02-06T05:29:52.685Z,0.00
2019-02-06T05:30:52.698Z,0.00
2019-02-06T05:31:52.710Z,0.00
2019-02-06T05:32:52.718Z,0.00
2019-02-06T05:33:52.731Z,0.00
2019-02-06T05:34:52.741Z,0.00
2019-02-06T05:35:52.750Z,0.00
2019-02-06T05:36:52.773Z,0.00
2019-02-06T05:37:52.773Z,0.00
2019-02-06T05:38:52.783Z,0.00
2019-02-06T05:39:52.794Z,0.00
2019-02-06T05:40:52.805Z,0.00
2019-02-06T05:41:52.820Z,0.00
2019-02-06T05:42:52.968Z,0.00
2019-02-06T05:43:52.835Z,0.00
2019-02-06T05:44:52.845Z,0.00
2019-02-06T05:45:52.857Z,0.00
2019-02-06T05:46:52.867Z,0.00
2019-02-06T05:47:52.878Z,0.00
2019-02-06T05:48:52.888Z,0.00
2019-02-06T05:49:52.899Z,0.00
2019-02-06T05:50:52.909Z,0.00
2019-02-06T05:51:52.916Z,0.00
2019-02-06T05:52:52.932Z,0.00
2019-02-06T05:53:52.937Z,0.00
2019-02-06T05:54:52.951Z,0.00
2019-02-06T05:55:52.958Z,0.00
2019-02-06T05:56:52.969Z,0.00
2019-02-06T05:57:52.982Z,0.00
2019-02-06T05:58:52.995Z,0.00
2019-02-06T05:59:53.001Z,0.00
2019-02-06T06:00:53.011Z,0.00
2019-02-06T06:01:53.024Z,0.00
2019-02-06T06:02:53.035Z,4.00
2019-02-06T06:03:53.044Z,4.00
2019-02-06T06:04:53.052Z,0.00
2019-02-06T06:05:53.065Z,0.00
2019-02-06T06:06:53.073Z,4.00
2019-02-06T06:07:53.082Z,4.00
2019-02-06T06:08:53.113Z,4.00
2019-02-06T06:09:53.108Z,4.00
2019-02-06T06:10:53.129Z,4.00
2019-02-06T06:11:53.124Z,4.00
2019-02-06T06:12:53.135Z,8.00
2019-02-06T06:13:53.144Z,8.00
2019-02-06T06:14:53.154Z,8.00
2019-02-06T06:15:53.164Z,12.00
2019-02-06T06:16:53.175Z,16.00
2019-02-06T06:17:53.185Z,20.00
2019-02-06T06:18:53.194Z,20.00
2019-02-06T06:19:53.203Z,28.00
2019-02-06T06:20:53.213Z,28.00
2019-02-06T06:21:53.225Z,32.00
2019-02-06T06:22:53.237Z,36.00
2019-02-06T06:23:53.247Z,44.00
2019-02-06T06:24:53.253Z,52.00
2019-02-06T06:25:53.271Z,60.00
2019-02-06T06:26:53.274Z,72.00
2019-02-06T06:27:53.284Z,76.00
2019-02-06T06:28:53.301Z,92.00
2019-02-06T06:29:53.306Z,100.00
2019-02-06T06:30:53.313Z,116.00
2019-02-06T06:31:53.323Z,128.00
2019-02-06T06:32:53.334Z,148.00
2019-02-06T06:33:53.343Z,160.00
2019-02-06T06:34:53.359Z,180.00
2019-02-06T06:35:53.361Z,200.00
2019-02-06T06:36:56.615Z,216.00
2019-02-06T06:37:59.963Z,244.00
2019-02-06T06:38:53.393Z,264.00
2019-02-06T06:39:53.404Z,288.00
2019-02-06T06:40:53.411Z,312.00
2019-02-06T06:41:53.421Z,336.00
2019-02-06T06:42:53.430Z,364.00
2019-02-06T06:43:53.441Z,388.00
2019-02-06T06:44:53.451Z,420.00
2019-02-06T06:45:53.462Z,452.00
2019-02-06T06:46:53.471Z,484.00
2019-02-06T06:47:53.479Z,516.00
2019-02-06T06:48:53.492Z,556.00
2019-02-06T06:49:53.581Z,592.00
2019-02-06T06:50:53.515Z,636.00
2019-02-06T06:51:53.519Z,676.00
2019-02-06T06:52:53.531Z,724.00
2019-02-06T06:53:53.540Z,784.00
2019-02-06T06:54:53.548Z,836.00
2019-02-06T06:55:53.558Z,892.00
2019-02-06T06:56:53.568Z,956.00
2019-02-06T06:57:53.576Z,1024.00
2019-02-06T06:58:53.589Z,1096.00
2019-02-06T06:59:55.507Z,1176.00
2019-02-06T07:00:53.606Z,1248.00
2019-02-06T07:01:53.616Z,1324.00
2019-02-06T07:02:53.630Z,1436.00
2019-02-06T07:03:53.635Z,1564.00
2019-02-06T07:04:53.648Z,1668.00
2019-02-06T07:05:53.668Z,1724.00
2019-02-06T07:06:53.665Z,1780.00
2019-02-06T07:07:53.695Z,1880.00
2019-02-06T07:08:53.685Z,1976.00
2019-02-06T07:09:53.694Z,2036.00
2019-02-06T07:10:53.712Z,2136.00
2019-02-06T07:11:53.714Z,2280.00
2019-02-06T07:12:53.725Z,2408.00
2019-02-06T07:13:53.739Z,2496.00
2019-02-06T07:14:53.831Z,2556.00
2019-02-06T07:15:53.835Z,2636.00
2019-02-06T07:16:53.829Z,2732.00
2019-02-06T07:17:53.827Z,2796.00
2019-02-06T07:18:53.839Z,2848.00
2019-02-06T07:19:53.829Z,2876.00
2019-02-06T07:20:53.896Z,2896.00
2019-02-06T07:21:53.894Z,2912.00
2019-02-06T07:22:53.898Z,2952.00
2019-02-06T07:23:53.882Z,3000.00
2019-02-06T07:24:53.895Z,3044.00
2019-02-06T07:25:53.882Z,3088.00
2019-02-06T07:26:53.881Z,3112.00
2019-02-06T07:27:53.887Z,3156.00
2019-02-06T07:28:53.890Z,3160.00
2019-02-06T07:29:53.898Z,3124.00
2019-02-06T07:30:53.910Z,3056.00
2019-02-06T07:31:53.921Z,2948.00
2019-02-06T07:32:53.931Z,2816.00
2019-02-06T07:33:53.942Z,2752.00
2019-02-06T07:34:53.951Z,2784.00
2019-02-06T07:35:53.961Z,2824.00
2019-02-06T07:36:53.972Z,2860.00
2019-02-06T07:37:53.984Z,2924.00
2019-02-06T07:38:53.993Z,3004.00
2019-02-06T07:39:54.005Z,3112.00
2019-02-06T07:40:54.014Z,3212.00
2019-02-06T07:41:54.025Z,3256.00
2019-02-06T07:42:54.035Z,3296.00
2019-02-06T07:43:54.043Z,3352.00
2019-02-06T07:44:54.054Z,3416.00
2019-02-06T07:45:54.068Z,3440.00
2019-02-06T07:46:54.077Z,3528.00
2019-02-06T07:47:54.088Z,3640.00
2019-02-06T07:48:54.099Z,3784.00
2019-02-06T07:49:54.110Z,3984.00
2019-02-06T07:50:54.122Z,4156.00
2019-02-06T07:51:54.135Z,4256.00
2019-02-06T07:52:54.140Z,4320.00
2019-02-06T07:53:54.152Z,4340.00
2019-02-06T07:54:54.164Z,4344.00
2019-02-06T07:55:54.171Z,4312.00
2019-02-06T07:56:54.185Z,4344.00
2019-02-06T07:57:54.195Z,4484.00
2019-02-06T07:58:54.204Z,4520.00
2019-02-06T07:59:54.216Z,4568.00
2019-02-06T08:00:54.225Z,4504.00
2019-02-06T08:01:54.238Z,4404.00
2019-02-06T08:02:54.254Z,4280.00
2019-02-06T08:03:54.263Z,4360.00
2019-02-06T08:04:54.270Z,4292.00
2019-02-06T08:05:54.284Z,4244.00
2019-02-06T08:06:54.292Z,4224.00
2019-02-06T08:07:54.303Z,4232.00
2019-02-06T08:08:54.315Z,4348.00
2019-02-06T08:09:54.324Z,4396.00
2019-02-06T08:10:54.338Z,4472.00
2019-02-06T08:11:54.349Z,4468.00
2019-02-06T08:12:54.357Z,4332.00
2019-02-06T08:13:54.372Z,4240.00
2019-02-06T08:14:54.379Z,4260.00
2019-02-06T08:15:54.388Z,4136.00
2019-02-06T08:16:54.398Z,4144.00
2019-02-06T08:17:54.412Z,4140.00
2019-02-06T08:18:54.524Z,4060.00
2019-02-06T08:19:54.436Z,4160.00
2019-02-06T08:20:54.445Z,4180.00
2019-02-06T08:21:54.456Z,4160.00
2019-02-06T08:22:54.467Z,4212.00
2019-02-06T08:23:54.478Z,4272.00
2019-02-06T08:24:54.488Z,4348.00
2019-02-06T08:25:54.500Z,4376.00
2019-02-06T08:26:54.511Z,4428.00
2019-02-06T08:27:54.525Z,4452.00
2019-02-06T08:28:54.533Z,4456.00
2019-02-06T08:29:54.544Z,4420.00
2019-02-06T08:30:54.555Z,4460.00
2019-02-06T08:31:54.565Z,4504.00
2019-02-06T08:32:54.576Z,4480.00
2019-02-06T08:33:54.589Z,4424.00
2019-02-06T08:34:54.600Z,4400.00
2019-02-06T08:35:54.611Z,4352.00
2019-02-06T08:36:54.622Z,4396.00
2019-02-06T08:37:54.633Z,4400.00
2019-02-06T08:38:55.677Z,4380.00
2019-02-06T08:39:54.655Z,4432.00
2019-02-06T08:40:54.666Z,4556.00
2019-02-06T08:41:54.677Z,4688.00
2019-02-06T08:42:54.691Z,4772.00
2019-02-06T08:43:54.698Z,4800.00
2019-02-06T08:44:54.710Z,4872.00
2019-02-06T08:45:54.721Z,4928.00
2019-02-06T08:46:54.738Z,5016.00
2019-02-06T08:47:54.854Z,5152.00
2019-02-06T08:48:54.754Z,5248.00
2019-02-06T08:49:54.765Z,5204.00
2019-02-06T08:50:54.779Z,5220.00
2019-02-06T08:51:54.789Z,5204.00
2019-02-06T08:52:54.802Z,5336.00
2019-02-06T08:53:54.811Z,5508.00
2019-02-06T08:54:54.824Z,5564.00
2019-02-06T08:55:54.835Z,5648.00
2019-02-06T08:56:54.845Z,5732.00
2019-02-06T08:57:54.859Z,5764.00
2019-02-06T08:58:54.867Z,5872.00
2019-02-06T08:59:54.878Z,5992.00
2019-02-06T09:00:54.891Z,6016.00
2019-02-06T09:01:54.900Z,6100.00
2019-02-06T09:02:54.915Z,6104.00
2019-02-06T09:03:54.925Z,6228.00
2019-02-06T09:04:56.142Z,6240.00
2019-02-06T09:05:54.948Z,6268.00
2019-02-06T09:06:54.973Z,6360.00
2019-02-06T09:07:54.970Z,6420.00
2019-02-06T09:08:59.791Z,6468.00
2019-02-06T09:09:54.996Z,6588.00
2019-02-06T09:10:55.006Z,6644.00
2019-02-06T09:11:55.016Z,6780.00
2019-02-06T09:12:55.037Z,6804.00
2019-02-06T09:13:55.041Z,6840.00
2019-02-06T09:14:55.053Z,6976.00
2019-02-06T09:15:55.076Z,7020.00
2019-02-06T09:16:55.079Z,7016.00
2019-02-06T09:17:55.089Z,7008.00
2019-02-06T09:18:55.100Z,6952.00
2019-02-06T09:19:55.112Z,6932.00
2019-02-06T09:20:55.123Z,6852.00
2019-02-06T09:21:55.134Z,6712.00
2019-02-06T09:22:55.147Z,6660.00
2019-02-06T09:23:55.162Z,6436.00
2019-02-06T09:24:55.169Z,6400.00
2019-02-06T09:25:57.409Z,6216.00
2019-02-06T09:26:55.197Z,6128.00
2019-02-06T09:27:55.207Z,6096.00
2019-02-06T09:28:55.220Z,6096.00
2019-02-06T09:29:55.232Z,6040.00
2019-02-06T09:30:55.243Z,6056.00
2019-02-06T09:31:55.259Z,6136.00
2019-02-06T09:32:55.270Z,6132.00
2019-02-06T09:33:55.279Z,6276.00
2019-02-06T09:34:55.294Z,6292.00
2019-02-06T09:35:55.304Z,6388.00
2019-02-06T09:36:55.317Z,6444.00
2019-02-06T09:37:55.332Z,6484.00
2019-02-06T09:38:55.346Z,6604.00
2019-02-06T09:39:55.355Z,6788.00
2019-02-06T09:40:55.369Z,6852.00
2019-02-06T09:41:55.376Z,7048.00
2019-02-06T09:42:55.395Z,7280.00
2019-02-06T09:43:55.403Z,7492.00
2019-02-06T09:44:55.414Z,7624.00
2019-02-06T09:45:57.140Z,7812.00
2019-02-06T09:46:55.441Z,8048.00
2019-02-06T09:47:55.452Z,8140.00
2019-02-06T09:48:55.466Z,8416.00
2019-02-06T09:49:55.478Z,8516.00
2019-02-06T09:50:55.490Z,8680.00
2019-02-06T09:51:55.507Z,8792.00
2019-02-06T09:52:55.536Z,9120.00
2019-02-06T09:53:55.528Z,9352.00
2019-02-06T09:54:55.565Z,9576.00
2019-02-06T09:55:55.622Z,9664.00
2019-02-06T09:56:55.630Z,9632.00
2019-02-06T09:57:55.627Z,9640.00
2019-02-06T09:58:55.630Z,9592.00
2019-02-06T09:59:55.631Z,9532.00
2019-02-06T10:00:55.692Z,9292.00
2019-02-06T10:01:55.687Z,9172.00
2019-02-06T10:02:55.683Z,9032.00
2019-02-06T10:03:55.688Z,8948.00
2019-02-06T10:04:55.691Z,8972.00
2019-02-06T10:05:55.708Z,9036.00
2019-02-06T10:06:55.700Z,9060.00
2019-02-06T10:07:55.714Z,9036.00
2019-02-06T10:08:55.728Z,8896.00
2019-02-06T10:09:57.931Z,8836.00
2019-02-06T10:10:55.761Z,8728.00
2019-02-06T10:11:55.769Z,8616.00
2019-02-06T10:12:55.785Z,8552.00
2019-02-06T10:13:55.795Z,8588.00
2019-02-06T10:14:55.811Z,8652.00
2019-02-06T10:15:55.825Z,8624.00
2019-02-06T10:16:55.840Z,8520.00
2019-02-06T10:17:55.855Z,8316.00
2019-02-06T10:18:55.868Z,7896.00
2019-02-06T10:19:55.882Z,7548.00
2019-02-06T10:20:55.896Z,7252.00
2019-02-06T10:21:55.910Z,6960.00
2019-02-06T10:22:55.923Z,6672.00
2019-02-06T10:23:55.937Z,6436.00
2019-02-06T10:24:55.951Z,6304.00
2019-02-06T10:25:55.970Z,6280.00
2019-02-06T10:26:55.982Z,6216.00
2019-02-06T10:27:56.055Z,6244.00
2019-02-06T10:28:56.010Z,6236.00
2019-02-06T10:29:56.022Z,6288.00
2019-02-06T10:30:56.036Z,6400.00
2019-02-06T10:31:56.049Z,6440.00
2019-02-06T10:32:56.064Z,6436.00
2019-02-06T10:33:56.079Z,6416.00
2019-02-06T10:34:56.093Z,6496.00
2019-02-06T10:35:56.107Z,6584.00
2019-02-06T10:36:56.122Z,6720.00
2019-02-06T10:37:56.133Z,7176.00
2019-02-06T10:38:56.150Z,7580.00
2019-02-06T10:39:58.635Z,7796.00
2019-02-06T10:40:56.175Z,7524.00
2019-02-06T10:41:56.191Z,7380.00
2019-02-06T10:42:56.203Z,7356.00
2019-02-06T10:43:56.217Z,7764.00
2019-02-06T10:44:56.234Z,8196.00
2019-02-06T10:45:56.312Z,8484.00
2019-02-06T10:46:56.261Z,8448.00
2019-02-06T10:47:56.275Z,8568.00
2019-02-06T10:48:56.289Z,8780.00
2019-02-06T10:49:56.303Z,8984.00
2019-02-06T10:50:58.222Z,9564.00
2019-02-06T10:51:56.330Z,9868.00
2019-02-06T10:52:56.345Z,10124.00
2019-02-06T10:53:56.364Z,10528.00
2019-02-06T10:54:56.375Z,10672.00
2019-02-06T10:55:56.388Z,10744.00
2019-02-06T10:56:56.404Z,10712.00
2019-02-06T10:57:56.418Z,10428.00
2019-02-06T10:58:56.432Z,10196.00
2019-02-06T10:59:56.447Z,9884.00
2019-02-06T11:00:56.460Z,9640.00
2019-02-06T11:01:56.475Z,9372.00
2019-02-06T11:02:56.491Z,9480.00
2019-02-06T11:03:56.504Z,9020.00
2019-02-06T11:04:56.520Z,9084.00
2019-02-06T11:05:56.536Z,8976.00
2019-02-06T11:06:56.551Z,9040.00
2019-02-06T11:07:56.563Z,9260.00
2019-02-06T11:08:56.591Z,9052.00
2019-02-06T11:09:56.597Z,8764.00
2019-02-06T11:10:56.610Z,8548.00
2019-02-06T11:11:56.625Z,8400.00
2019-02-06T11:12:56.639Z,8308.00
2019-02-06T11:13:56.655Z,8436.00
2019-02-06T11:14:56.670Z,8628.00
2019-02-06T11:15:56.685Z,8844.00
2019-02-06T11:16:56.700Z,9008.00
2019-02-06T11:17:56.715Z,9276.00
2019-02-06T11:18:56.731Z,9588.00
2019-02-06T11:19:56.749Z,9892.00
2019-02-06T11:20:56.760Z,10400.00
2019-02-06T11:21:56.777Z,10776.00
2019-02-06T11:22:56.790Z,11324.00
2019-02-06T11:23:56.804Z,12168.00
2019-02-06T11:24:56.820Z,12844.00
2019-02-06T11:25:56.837Z,13492.00
2019-02-06T11:26:56.851Z,13940.00
2019-02-06T11:27:56.866Z,14116.00
2019-02-06T11:28:56.882Z,14320.00
2019-02-06T11:29:56.896Z,14336.00
2019-02-06T11:30:57.206Z,14276.00
2019-02-06T11:31:56.930Z,14084.00
2019-02-06T11:32:56.945Z,14144.00
2019-02-06T11:33:56.961Z,14096.00
2019-02-06T11:34:56.975Z,13920.00
2019-02-06T11:35:56.991Z,13620.00
2019-02-06T11:36:57.008Z,13236.00
2019-02-06T11:37:57.022Z,12836.00
2019-02-06T11:38:57.041Z,12496.00
2019-02-06T11:39:58.260Z,12048.00
2019-02-06T11:40:57.073Z,11620.00
2019-02-06T11:41:57.086Z,11172.00
2019-02-06T11:42:57.105Z,10916.00
2019-02-06T11:43:57.120Z,10672.00
2019-02-06T11:44:57.137Z,10780.00
2019-02-06T11:45:57.157Z,10984.00
2019-02-06T11:46:57.168Z,10960.00
2019-02-06T11:47:57.185Z,11032.00
2019-02-06T11:48:57.201Z,11004.00
2019-02-06T11:49:57.219Z,11048.00
2019-02-06T11:50:57.238Z,11068.00
2019-02-06T11:51:57.249Z,10920.00
2019-02-06T11:52:57.267Z,10660.00
2019-02-06T11:53:57.283Z,10272.00
2019-02-06T11:54:57.301Z,9912.00
2019-02-06T11:55:57.314Z,9504.00
2019-02-06T11:56:57.331Z,9076.00
2019-02-06T11:57:57.349Z,8612.00
2019-02-06T11:58:57.365Z,8172.00
2019-02-06T11:59:57.387Z,7820.00
2019-02-06T12:00:57.429Z,7596.00
2019-02-06T12:01:57.481Z,7476.00
2019-02-06T12:02:57.488Z,7400.00
2019-02-06T12:03:57.471Z,7320.00
2019-02-06T12:04:57.541Z,7376.00
2019-02-06T12:05:57.546Z,7480.00
2019-02-06T12:06:57.534Z,7612.00
2019-02-06T12:07:57.539Z,7788.00
2019-02-06T12:08:57.535Z,7960.00
2019-02-06T12:10:08.994Z,8140.00
2019-02-06T12:10:57.559Z,8244.00
2019-02-06T12:11:57.638Z,8296.00
2019-02-06T12:12:57.590Z,8300.00
2019-02-06T12:13:57.609Z,8280.00
2019-02-06T12:14:57.630Z,8268.00
2019-02-06T12:15:57.638Z,8232.00
2019-02-06T12:16:57.656Z,8380.00
2019-02-06T12:17:57.673Z,8584.00
2019-02-06T12:18:57.689Z,8704.00
2019-02-06T12:19:57.703Z,8844.00
2019-02-06T12:20:57.720Z,9028.00
2019-02-06T12:21:57.735Z,9116.00
2019-02-06T12:22:57.755Z,9152.00
2019-02-06T12:23:57.771Z,9184.00
2019-02-06T12:24:57.784Z,9332.00
2019-02-06T12:25:57.801Z,9424.00
2019-02-06T12:26:57.826Z,9512.00
2019-02-06T12:27:57.836Z,9692.00
2019-02-06T12:28:57.860Z,9948.00
2019-02-06T12:29:57.880Z,10280.00
2019-02-06T12:30:57.883Z,10588.00
2019-02-06T12:31:57.898Z,10812.00
2019-02-06T12:32:57.911Z,10936.00
2019-02-06T12:33:57.929Z,11064.00
2019-02-06T12:34:57.946Z,10992.00
2019-02-06T12:35:57.958Z,10784.00
2019-02-06T12:36:57.979Z,10580.00
2019-02-06T12:37:57.996Z,10368.00
2019-02-06T12:38:58.011Z,10160.00
2019-02-06T12:39:58.032Z,9924.00
2019-02-06T12:40:58.044Z,9728.00